Radiosonde details



Informationen :

Serial : Y1832475
Type : Vaisala RS41-SG
Date of production : 29.04.2026
Frequency : 405.100MHz
Launchsite : -
Nearest town : Skinningrove, GB (43.6km)

Altitude (Max) : 27634m at 2026-09-02 00:49:22
Speed (Max) : 65km/h at altitude 18813m

Average speed : 26km/h
Average ascent rate : 5m/s
Average descent rate : -10m/s
Ascent rate (Max) : 7.0m/s
Descent rate (Max): -19.4m/s

First frame :
DJ2DS-13 at 2026-09-02 00:32:40 at altitude 22154m (OG: 22112m)
Last frame :
DJ2DS-15 at 2026-09-02 01:07:24 at altitude 17586m (OG: 17544m)

Flighttime : 34m44s
Ascent time : 16m42s
Descent time : 18m2s
Uptime : 2h17m21s
Killtimer : 8h16m

Distance (Straight line distance): 9km

Distance (Route):


Frames : 129


Measurement :

Temperature : -51.1°C
Humidity : 0.6%
Pressure : -1.0hPa


Vertical profile (SkewT) :


Elevation profile :



Receiving stations :


Receiver Frames First received Last received
DJ2DS-15 129 2026-09-02 00:32:40 2026-09-02 01:07:24

Share per receiver :



All frames :


Receiver Date Latitude Longitude Direction Speed Altitude Climb Temperature Humidity Pressure Voltage Killtimer Uptime BKT XDATA
DJ2DS-152026-09-02 01:07:2454.91019-0.56251107°60km/h17586m-6.0m/s-51.1°C0.6%-1.0hPa2.6V00:00:0000:00:0000:00:00
DJ2DS-152026-09-02 01:06:0754.90805-0.5766475°51km/h18061m-6.7m/s-52.6°C3.6%0hPa2.6V00:00:0002:17:2100:00:00
DJ2DS-152026-09-02 01:05:4754.90814-0.5811080°47km/h18200m-6.6m/s-51.2°C3.3%0hPa2.6V00:00:0002:17:0100:00:00
DJ2DS-152026-09-02 01:05:2754.90730-0.5848589°46km/h18342m-7.0m/s-51.2°C3.2%0hPa2.6V00:00:0002:16:4100:00:00
DJ2DS-152026-09-02 01:05:0754.90762-0.5889585°46km/h18490m-7.0m/s-51.6°C3.4%0hPa2.5V00:00:0002:16:2100:00:00
DJ2DS-152026-09-02 01:05:0054.90732-0.5909767°51km/h18549m-7.7m/s-51.9°C0.6%-1.0hPa2.5V00:00:0000:00:0000:00:00
DJ2DS-152026-09-02 01:04:4754.90708-0.59274102°47km/h18637m-7.8m/s-50.2°C3.2%0hPa2.5V00:00:0002:16:0100:00:00
DJ2DS-152026-09-02 01:04:2754.90818-0.59653108°51km/h18784m-7.2m/s-49.6°C3.0%0hPa2.5V00:00:0002:15:4100:00:00
DJ2DS-152026-09-02 01:04:2454.90832-0.5976697°64km/h18813m-7.2m/s-49.8°C0.5%-1.0hPa2.5V00:00:0000:00:0000:00:00
DJ2DS-152026-09-02 01:04:0754.90842-0.60083117°55km/h18928m-7.0m/s-49.3°C3.0%0hPa2.5V00:00:0002:15:2100:00:00
DJ2DS-152026-09-02 01:03:4754.90970-0.60493102°60km/h19073m-7.2m/s-49.9°C3.0%0hPa2.5V00:00:0002:15:0100:00:00
DJ2DS-152026-09-02 01:03:2754.90953-0.6100484°37km/h19221m-7.2m/s-50.4°C3.3%0hPa2.5V08:16:0002:14:4100:00:00
DJ2DS-152026-09-02 01:03:0754.91043-0.61267134°49km/h19368m-7.0m/s-49.0°C2.9%0hPa2.5V00:00:0002:14:2100:00:00
DJ2DS-152026-09-02 01:02:4754.91105-0.6164070°16km/h19504m-6.8m/s-49.1°C2.9%0hPa2.5V00:00:0002:14:0100:00:00
DJ2DS-152026-09-02 01:02:2754.91093-0.61694146°33km/h19648m-7.2m/s-49.3°C2.9%0hPa2.5V00:00:0002:13:4100:00:00
DJ2DS-152026-09-02 01:02:0754.91069-0.6195039°24km/h19795m-7.6m/s-50.3°C3.1%0hPa2.6V00:00:0002:13:2100:00:00
DJ2DS-152026-09-02 01:01:2354.91007-0.6236458°31km/h20119m-7.6m/s-50.7°C0.6%-1.0hPa2.6V00:00:0000:00:0000:00:00
DJ2DS-152026-09-02 01:01:0554.91032-0.62496128°47km/h20252m-7.9m/s-50.5°C3.2%0hPa2.6V00:00:0002:12:1900:00:00
DJ2DS-152026-09-02 01:00:4854.91068-0.6284972°40km/h20390m-7.8m/s-50.6°C0.5%-1.0hPa2.6V00:00:0000:00:0000:00:00
DJ2DS-152026-09-02 01:00:4554.91061-0.6288065°16km/h20406m-7.8m/s-50.2°C3.1%0hPa2.6V00:00:0002:11:5900:00:00
DJ2DS-152026-09-02 01:00:2554.91021-0.62922179°27km/h20565m-8.0m/s-50.7°C3.1%0hPa2.5V00:00:0002:11:3900:00:00
DJ2DS-152026-09-02 01:00:0554.91046-0.6313659°26km/h20729m-8.7m/s-51.7°C3.4%0hPa2.5V00:00:0002:11:1900:00:00
DJ2DS-152026-09-02 00:59:4554.90944-0.63243133°35km/h20896m-8.7m/s-51.7°C3.5%0hPa2.5V08:20:0002:10:5900:00:00
DJ2DS-152026-09-02 00:59:3554.90984-0.63334116°40km/h20982m-8.6m/s-51.2°C0.5%-1.0hPa2.5V00:00:0000:00:0000:00:00
DJ2DS-152026-09-02 00:59:2554.90993-0.6352176°22km/h21068m-8.6m/s-50.8°C3.3%0hPa2.5V00:00:0002:10:3900:00:00
DJ2DS-152026-09-02 00:59:0554.90936-0.63595255°20km/h21241m-9.2m/s-50.5°C3.1%0hPa2.5V00:00:0002:10:1900:00:00
DJ2DS-152026-09-02 00:58:4554.90998-0.6365899°40km/h21415m-9.7m/s-50.5°C3.2%0hPa2.5V00:00:0002:09:5900:00:00
DJ2DS-152026-09-02 00:58:2554.90886-0.6392616°16km/h21596m-8.8m/s-51.0°C3.5%0hPa2.5V00:00:0002:09:3900:00:00
DJ2DS-152026-09-02 00:58:2354.90872-0.6393413°24km/h21612m-8.7m/s-50.8°C0.6%-1.0hPa2.5V00:00:0000:00:0000:00:00
DJ2DS-152026-09-02 00:58:0554.90878-0.63963133°38km/h21769m-8.6m/s-49.7°C3.1%0hPa2.5V00:00:0002:09:1900:00:00
DJ2DS-152026-09-02 00:57:4554.90867-0.6426739°29km/h21945m-8.2m/s-49.9°C3.1%0hPa2.5V00:00:0002:08:5900:00:00
DJ2DS-152026-09-02 00:57:2554.90729-0.64256230°27km/h22116m-8.4m/s-50.1°C3.1%0hPa2.6V00:00:0002:08:3900:00:00
DJ2DS-152026-09-02 00:57:0554.90684-0.6446835°24km/h22296m-8.7m/s-51.1°C3.3%0hPa2.6V00:00:0002:08:1900:00:00
DJ2DS-152026-09-02 00:56:4554.90620-0.64473160°37km/h22475m-9.3m/s-51.8°C3.5%0hPa2.6V08:23:0002:07:5900:00:00
DJ2DS-152026-09-02 00:56:2554.90593-0.6473425°24km/h22667m-9.9m/s-51.6°C3.5%0hPa2.6V00:00:0002:07:3900:00:00
DJ2DS-152026-09-02 00:56:0554.90539-0.64784129°42km/h22861m-9.5m/s-51.4°C3.3%0hPa2.6V00:00:0002:07:1900:00:00
DJ2DS-152026-09-02 00:55:5954.90557-0.6489985°42km/h22929m-9.9m/s-51.8°C0.6%-1.0hPa2.6V00:00:0000:00:0000:00:00
DJ2DS-152026-09-02 00:55:4554.90481-0.6507620km/h23058m-9.8m/s-51.5°C3.5%0hPa2.6V00:00:0002:06:5900:00:00
DJ2DS-152026-09-02 00:55:2554.90474-0.65032136°40km/h23257m-10.2m/s-51.0°C3.3%0hPa2.6V00:00:0002:06:3900:00:00
DJ2DS-152026-09-02 00:55:2354.90488-0.65062119°33km/h23287m-10.4m/s-51.0°C0.5%-1.0hPa2.6V00:00:0000:00:0000:00:00
DJ2DS-152026-09-02 00:55:0554.90444-0.6532614°22km/h23456m-9.7m/s-50.8°C3.2%0hPa2.6V00:00:0002:06:1900:00:00
DJ2DS-152026-09-02 00:54:4654.90463-0.65320111°29km/h23648m-10.6m/s-51.3°C0.5%-1.0hPa2.6V00:00:0000:00:0000:00:00
DJ2DS-152026-09-02 00:54:4554.90465-0.65332107°38km/h23659m-10.4m/s-51.2°C3.4%0hPa2.6V00:00:0002:05:5900:00:00
DJ2DS-152026-09-02 00:54:2554.90348-0.65553355°26km/h23861m-9.9m/s-51.2°C3.4%0hPa2.5V00:00:0002:05:3900:00:00
DJ2DS-152026-09-02 00:54:0554.90385-0.6571875°31km/h24076m-11.0m/s-50.8°C3.4%0hPa2.5V00:00:0002:05:1900:00:00
DJ2DS-152026-09-02 00:53:4554.90282-0.65847194°38km/h24286m-11.3m/s-50.6°C3.4%0hPa2.5V08:26:0002:04:5900:00:00
DJ2DS-152026-09-02 00:53:3454.90353-0.65926117°47km/h24412m-12.1m/s-50.0°C0.5%-1.0hPa2.5V00:00:0000:00:0000:00:00
DJ2DS-152026-09-02 00:53:0554.90422-0.66071181°31km/h24742m-11.7m/s-49.4°C3.1%0hPa2.5V00:00:0002:04:1900:00:00
DJ2DS-152026-09-02 00:52:5954.90492-0.66112136°31km/h24821m-11.9m/s-49.6°C0.5%-1.0hPa2.5V00:00:0000:00:0000:00:00
DJ2DS-152026-09-02 00:52:4554.90471-0.66186322°35km/h24970m-11.3m/s-49.7°C3.2%0hPa2.5V00:00:0002:03:5900:00:00
DJ2DS-152026-09-02 00:52:2554.90571-0.66173107°29km/h25208m-12.4m/s-49.9°C3.2%0hPa2.6V00:00:0002:03:3900:00:00
DJ2DS-152026-09-02 00:52:0554.90546-0.66277218°44km/h25446m-12.6m/s-48.7°C3.0%0hPa2.6V00:00:0002:03:1900:00:00
DJ2DS-152026-09-02 00:51:4654.90680-0.6642863°37km/h25685m-13.4m/s-49.1°C0.5%-1.0hPa2.6V00:00:0000:00:0000:00:00
DJ2DS-152026-09-02 00:51:4554.90675-0.6644256°29km/h25698m-13.2m/s-49.0°C3.1%0hPa2.6V00:00:0002:02:5900:00:00
DJ2DS-152026-09-02 00:51:2554.90707-0.66394167°37km/h25953m-13.3m/s-48.6°C3.0%0hPa2.5V00:00:0002:02:3900:00:00
DJ2DS-152026-09-02 00:51:1054.90718-0.6657117°37km/h26143m-12.9m/s-48.6°C0.4%-1.0hPa2.5V00:00:0000:00:0000:00:00
DJ2DS-152026-09-02 00:51:0554.90681-0.66560315°40km/h26203m-12.8m/s-48.8°C3.1%0hPa2.5V00:00:0002:02:1900:00:00
DJ2DS-152026-09-02 00:50:4554.90814-0.66622101°33km/h26465m-12.8m/s-48.2°C3.0%0hPa2.5V08:29:0002:01:5900:00:00
DJ2DS-152026-09-02 00:50:3454.90780-0.66668294°31km/h26605m-13.8m/s-47.7°C0.4%-1.0hPa2.5V00:00:0000:00:0000:00:00
DJ2DS-152026-09-02 00:50:2554.90812-0.66538209°40km/h26725m-13.6m/s-48.1°C2.9%0hPa2.5V00:00:0002:01:3900:00:00
DJ2DS-152026-09-02 00:50:0554.90866-0.66717346°37km/h26997m-14.5m/s-48.7°C3.1%0hPa2.5V00:00:0002:01:1900:00:00
DJ2DS-152026-09-02 00:49:5854.90847-0.66641247°37km/h27097m-14.2m/s-48.6°C0.5%-1.0hPa2.5V00:00:0000:00:0000:00:00
DJ2DS-152026-09-02 00:49:4554.90943-0.6665793°29km/h27288m-13.8m/s-47.9°C2.9%0hPa2.5V00:00:0002:00:5900:00:00
DJ2DS-152026-09-02 00:49:2554.90869-0.66616313°11km/h27630m-19.4m/s-47.9°C2.9%0hPa2.5V00:00:0002:00:3900:00:00
DJ2DS-152026-09-02 00:49:2254.90857-0.66599354°7km/h27634m5.3m/s-48.0°C0.4%-1.0hPa2.5V00:00:0000:00:0000:00:00
DJ2DS-152026-09-02 00:49:0654.90839-0.66546352°11km/h27555m4.1m/s-48.2°C2.9%0hPa2.5V00:00:0002:00:1900:00:00
DJ2DS-152026-09-02 00:48:4654.90848-0.66454269°16km/h27451m3.8m/s-48.2°C0.4%-1.0hPa2.5V00:00:0000:00:0000:00:00
DJ2DS-152026-09-02 00:48:4554.90848-0.66453270°13km/h27451m3.8m/s-48.2°C2.9%0hPa2.5V00:00:0001:59:5900:00:00
DJ2DS-152026-09-02 00:48:2554.90875-0.66379199°9km/h27347m5.2m/s-48.0°C2.9%0hPa2.5V00:00:0001:59:3900:00:00
DJ2DS-152026-09-02 00:48:0554.90888-0.6634410°5km/h27242m4.9m/s-48.6°C3.0%0hPa2.5V00:00:0001:59:1900:00:00
DJ2DS-152026-09-02 00:47:4554.90886-0.66361155°7km/h27136m5.6m/s-49.0°C3.1%0hPa2.5V00:00:0001:58:5908:30:00
DJ2DS-152026-09-02 00:47:3454.90911-0.66368217°5km/h27069m4.6m/s-49.2°C0.5%-1.0hPa2.5V00:00:0000:00:0000:00:00
DJ2DS-152026-09-02 00:47:2554.90923-0.66366154°9km/h27026m6.0m/s-49.0°C3.1%0hPa2.5V00:00:0001:58:3900:00:00
DJ2DS-152026-09-02 00:47:0554.90960-0.66400160°9km/h26915m5.9m/s-48.8°C3.1%0hPa2.5V00:00:0001:58:1900:00:00
DJ2DS-152026-09-02 00:46:4554.91000-0.66406194°7km/h26804m5.5m/s-48.4°C3.0%0hPa2.5V00:00:0001:57:5900:00:00
DJ2DS-152026-09-02 00:46:2554.91026-0.66393239°15km/h26693m4.8m/s-48.2°C2.9%0hPa2.5V00:00:0001:57:3900:00:00
DJ2DS-152026-09-02 00:46:2154.91036-0.66387174°13km/h26671m5.1m/s-48.3°C0.4%-1.0hPa2.5V00:00:0000:00:0000:00:00
DJ2DS-152026-09-02 00:46:0554.91094-0.66389180°20km/h26580m4.0m/s-48.6°C2.9%0hPa2.5V00:00:0001:57:1900:00:00
DJ2DS-152026-09-02 00:45:4554.91183-0.66445142°18km/h26470m5.6m/s-49.3°C3.1%0hPa2.5V00:00:0001:56:5900:00:00
DJ2DS-152026-09-02 00:45:2554.91251-0.66563133°15km/h26360m5.1m/s-49.4°C3.1%0hPa2.6V00:00:0001:56:3900:00:00
DJ2DS-152026-09-02 00:45:0954.91270-0.66666125°9km/h26272m6.4m/s-49.4°C0.5%-1.0hPa2.6V00:00:0000:00:0000:00:00
DJ2DS-152026-09-02 00:45:0554.91272-0.6668370°9km/h26249m5.4m/s-49.3°C3.2%0hPa2.6V00:00:0001:56:1900:00:00
DJ2DS-152026-09-02 00:44:4554.91296-0.66738186°13km/h26131m4.8m/s-48.8°C3.1%0hPa2.6V00:00:0001:55:5908:30:00
DJ2DS-152026-09-02 00:44:3354.91332-0.66734184°13km/h26061m5.6m/s-48.9°C0.5%-1.0hPa2.5V00:00:0000:00:0000:00:00
DJ2DS-152026-09-02 00:44:2554.91360-0.66742168°15km/h26014m7.0m/s-49.0°C3.0%0hPa2.5V00:00:0001:55:3900:00:00
DJ2DS-152026-09-02 00:44:0554.91426-0.66784136°18km/h25894m5.9m/s-49.0°C3.0%0hPa2.5V00:00:0001:55:1900:00:00
DJ2DS-152026-09-02 00:43:5754.91450-0.66817111°15km/h25848m5.0m/s-49.3°C0.5%-1.0hPa2.5V00:00:0000:00:0000:00:00
DJ2DS-152026-09-02 00:43:4554.91475-0.66908109°13km/h25775m5.6m/s-49.3°C3.2%0hPa2.5V00:00:0001:54:5900:00:00
DJ2DS-152026-09-02 00:43:2554.91524-0.66982154°16km/h25660m6.1m/s-49.0°C3.1%0hPa2.7V00:00:0001:54:3900:00:00
DJ2DS-152026-09-02 00:43:2154.91539-0.66995159°20km/h25636m5.3m/s-49.0°C0.5%-1.0hPa2.7V00:00:0000:00:0000:00:00
DJ2DS-152026-09-02 00:43:0554.91603-0.67043142°20km/h25543m4.3m/s-48.9°C3.1%0hPa2.7V00:00:0001:54:1900:00:00
DJ2DS-152026-09-02 00:42:4554.91689-0.67112158°22km/h25430m5.6m/s-49.2°C3.0%0hPa2.7V00:00:0001:53:5900:00:00
DJ2DS-152026-09-02 00:42:2554.91759-0.67249105°18km/h25324m6.0m/s-50.2°C3.2%0hPa2.5V00:00:0001:53:3900:00:00
DJ2DS-152026-09-02 00:42:0954.91777-0.6737094°18km/h25238m5.0m/s-50.2°C0.5%-1.0hPa2.5V00:00:0000:00:0000:00:00
DJ2DS-152026-09-02 00:42:0554.91783-0.67394139°9km/h25217m6.1m/s-50.2°C3.3%0hPa2.5V00:00:0001:53:1900:00:00
DJ2DS-152026-09-02 00:41:4554.91811-0.67453128°11km/h25114m5.9m/s-50.2°C3.2%0hPa2.5V00:00:0001:52:5908:30:00
DJ2DS-152026-09-02 00:41:2554.91852-0.67501178°11km/h25009m4.8m/s-49.9°C3.2%0hPa2.5V00:00:0001:52:3900:00:00
DJ2DS-152026-09-02 00:41:0554.91903-0.67480188°22km/h24900m5.7m/s-50.2°C3.2%0hPa2.5V00:00:0001:52:1900:00:00
DJ2DS-152026-09-02 00:40:4554.91999-0.67471179°20km/h24795m6.1m/s-50.2°C3.2%0hPa2.5V00:00:0001:51:5900:00:00
DJ2DS-152026-09-02 00:40:2554.92073-0.67546157°27km/h24688m4.6m/s-50.2°C3.2%0hPa2.5V00:00:0001:51:3900:00:00
DJ2DS-152026-09-02 00:40:0554.92153-0.67736125°22km/h24579m4.9m/s-50.2°C3.2%0hPa2.5V00:00:0001:51:1900:00:00
DJ2DS-152026-09-02 00:39:4554.92192-0.6792694°16km/h24460m5.4m/s-50.2°C0.5%-1.0hPa2.5V00:00:0000:00:0000:00:00
DJ2DS-152026-09-02 00:39:2554.92190-0.6806283°22km/h24357m4.7m/s-50.7°C3.3%0hPa2.5V00:00:0001:50:3900:00:00
DJ2DS-152026-09-02 00:39:0554.92170-0.6825278°22km/h24249m4.4m/s-50.9°C3.3%0hPa2.5V00:00:0001:50:1900:00:00
DJ2DS-152026-09-02 00:38:4554.92151-0.6844197°22km/h24139m6.0m/s-51.2°C3.3%0hPa2.5V00:00:0001:49:5908:30:00
DJ2DS-152026-09-02 00:38:3354.92122-0.6854485°18km/h24065m5.4m/s-51.4°C0.6%-1.0hPa2.5V00:00:0000:00:0000:00:00
DJ2DS-152026-09-02 00:38:2554.92111-0.6861151°26km/h24025m5.4m/s-51.4°C3.4%0hPa2.5V00:00:0001:49:3900:00:00
DJ2DS-152026-09-02 00:38:0554.92080-0.6882585°24km/h23916m5.7m/s-51.6°C3.5%0hPa2.5V00:00:0001:49:1900:00:00
DJ2DS-152026-09-02 00:37:5654.92058-0.6891848°22km/h23867m5.0m/s-51.6°C0.6%-1.0hPa2.5V00:00:0000:00:0000:00:00
DJ2DS-152026-09-02 00:37:4554.92020-0.6900449°15km/h23807m5.3m/s-51.5°C3.4%0hPa2.5V00:00:0001:48:5900:00:00
DJ2DS-152026-09-02 00:37:2554.91972-0.6909728°9km/h23700m6.0m/s-51.6°C3.5%0hPa2.7V00:00:0001:48:3900:00:00
DJ2DS-152026-09-02 00:37:0554.91942-0.69161103°16km/h23598m4.7m/s-51.5°C3.5%0hPa2.7V00:00:0001:48:1900:00:00
DJ2DS-152026-09-02 00:36:4554.91949-0.6930099°18km/h23498m4.9m/s-51.2°C3.4%0hPa2.7V00:00:0001:47:5900:00:00
DJ2DS-152026-09-02 00:36:4454.91950-0.6930890°18km/h23493m5.0m/s-51.2°C0.6%-1.0hPa2.5V00:00:0000:00:0000:00:00
DJ2DS-152026-09-02 00:36:2554.91939-0.69465101°16km/h23399m4.8m/s-51.5°C3.4%0hPa2.5V00:00:0001:47:3900:00:00
DJ2DS-152026-09-02 00:36:0854.91917-0.69583112°9km/h23312m5.0m/s-51.6°C0.6%-1.0hPa2.5V00:00:0000:00:0000:00:00
DJ2DS-152026-09-02 00:36:0554.91916-0.6959322°9km/h23296m4.7m/s-51.4°C3.5%0hPa2.5V00:00:0001:47:1900:00:00
DJ2DS-152026-09-02 00:35:4554.91871-0.6962558°13km/h23189m5.9m/s-51.2°C3.3%0hPa2.5V00:00:0001:46:5908:30:00
DJ2DS-152026-09-02 00:35:2554.91852-0.6973251°15km/h23077m6.7m/s-51.6°C3.5%0hPa2.5V00:00:0001:46:3900:00:00
DJ2DS-152026-09-02 00:35:0554.91801-0.6983056°20km/h22966m5.9m/s-51.8°C3.6%0hPa2.5V00:00:0001:46:1900:00:00
DJ2DS-152026-09-02 00:34:4554.91775-0.6999368°22km/h22853m4.7m/s-51.5°C3.5%0hPa2.5V00:00:0001:45:5900:00:00
DJ2DS-152026-09-02 00:34:2554.91729-0.7017568°26km/h22737m4.9m/s-51.1°C3.4%0hPa0V00:00:0001:45:3900:00:00
DJ2DS-152026-09-02 00:34:0554.91650-0.7035161°13km/h22625m6.2m/s-51.7°C3.5%0hPa0V00:00:0001:45:1900:00:00
DJ2DS-152026-09-02 00:33:4554.91619-0.7044678°16km/h22511m5.1m/s0°C0%0hPa0V00:00:0001:44:5900:00:00
DJ2DS-152026-09-02 00:33:4454.91616-0.7045746°13km/h22499m5.3m/s-51.3°C0.6%-1.0hPa0V00:00:0000:00:0000:00:00
DJ2DS-152026-09-02 00:33:2554.91613-0.7058799°20km/h22401m6.7m/s0°C0%0hPa0V00:00:0001:44:3900:00:00
DJ2DS-152026-09-02 00:33:0854.91602-0.7073466°16km/h22302m5.3m/s-50.6°C-1.0%-1.0hPa0V00:00:0000:00:0000:00:00
DJ2DS-152026-09-02 00:33:0554.91598-0.7074858°22km/h22291m4.6m/s0°C0%0hPa0V00:00:0001:44:1900:00:00
DJ2DS-152026-09-02 00:32:4054.91523-0.7095342°22km/h22154m4.8m/s0°C0%0hPa0V00:00:0001:43:5400:00:00


GPX KML Map

© wettersonde.net (DO2JMG) - 2026  -  -